Time;durP1;ratioP1;P1;durP2;ratioP2;P2;SDS_P1;SDS_P2;PMS_P1;PMS_P2;Temp;Humidity;BMP_temperature;BMP_pressure;BME280_temperature;BME280_humidity;BME280_pressure;Samples;Min_cycle;Max_cycle;Signal;HPM_P1;HPM_P2
2021/04/11 18:48:03;;;;;;;2.67;1.45;;;6.00;99.90;;;4.14;73.97;101481.72;3569329;39;101995;-41
2021/04/11 18:50:51;;;;;;;3.40;1.00;;;6.00;99.90;;;3.95;72.61;101471.88;3554541;39;103133;-41
2021/04/11 18:53:45;;;;;;;3.17;1.30;;;5.90;99.90;;;4.02;72.24;101494.59;3537542;39;104730;-40
2021/04/11 18:56:41;;;;;;;1.98;0.93;;;5.80;99.90;;;3.97;74.14;101494.16;3546168;39;102250;-41
2021/04/11 18:59:28;;;;;;;2.67;1.30;;;5.80;99.90;;;3.93;72.57;101496.34;3538212;39;105228;-39
2021/04/11 19:02:04;;;;;;;2.75;1.20;;;5.80;99.90;;;3.88;73.14;101496.78;3669961;22;104486;-40
2021/04/11 19:04:40;;;;;;;5.50;1.38;;;5.70;99.90;;;3.81;73.87;101505.63;3542858;39;104898;-40
2021/04/11 19:07:21;;;;;;;3.55;1.45;;;5.60;99.90;;;3.72;74.25;101518.22;3528549;39;103752;-40
2021/04/11 19:10:16;;;;;;;2.63;1.20;;;5.60;99.90;;;3.64;76.13;101520.78;3536291;39;102124;-40
2021/04/11 19:13:10;;;;;;;3.05;1.10;;;5.50;99.90;;;3.60;76.23;101518.41;3536166;39;102419;-40
2021/04/11 19:15:49;;;;;;;2.50;1.00;;;5.40;99.90;;;3.47;76.38;101525.13;3535761;39;102137;-40
2021/04/11 19:18:36;;;;;;;4.30;1.10;;;5.30;99.90;;;3.37;76.81;101520.63;3527732;39;103166;-40
2021/04/11 19:21:35;;;;;;;3.72;1.02;;;5.20;99.90;;;3.27;77.74;101526.06;3536424;39;103976;-40
2021/04/11 19:24:42;;;;;;;2.15;1.00;;;5.10;99.90;;;3.19;75.77;101536.75;3535745;39;102280;-40
2021/04/11 19:27:28;;;;;;;1.95;1.10;;;5.10;99.90;;;3.16;76.21;101545.09;3526817;39;103042;-42
2021/04/11 19:30:18;;;;;;;2.78;1.20;;;5.00;99.90;;;3.05;77.86;101537.19;3519446;39;102393;-40
2021/04/11 19:33:14;;;;;;;3.00;1.33;;;4.90;99.90;;;2.96;78.12;101544.28;3535943;39;102246;-40
2021/04/11 19:36:01;;;;;;;3.13;1.17;;;4.90;99.90;;;2.90;78.15;101544.88;3526548;39;102553;-41
2021/04/11 19:38:47;;;;;;;4.00;1.52;;;4.80;99.90;;;2.83;78.07;101550.84;3526368;39;105194;-40
2021/04/11 19:41:39;;;;;;;3.03;1.40;;;4.70;99.90;;;2.82;78.09;101550.97;3535915;39;104119;-40
2021/04/11 19:44:36;;;;;;;4.68;1.40;;;4.70;99.90;;;2.74;78.02;101551.69;3527832;39;102382;-40
2021/04/11 19:47:24;;;;;;;2.75;1.40;;;4.60;99.90;;;2.68;78.14;101563.91;3535845;39;102405;-40
2021/04/11 19:50:13;;;;;;;2.35;1.27;;;4.50;99.90;;;2.59;79.42;101562.06;3526789;39;102204;-40
2021/04/11 19:53:01;;;;;;;3.88;1.50;;;4.50;99.90;;;2.51;79.40;101567.31;3536063;39;102237;-40
2021/04/11 19:55:57;;;;;;;2.90;1.38;;;4.40;99.90;;;2.37;79.52;101572.09;3535350;39;102270;-40
2021/04/11 19:58:40;;;;;;;4.10;1.40;;;4.30;99.90;;;2.38;79.51;101579.19;3521672;39;102599;-40
2021/04/11 20:01:16;;;;;;;3.58;1.00;;;4.20;99.90;;;2.31;79.49;101580.75;3529026;39;102173;-40
2021/04/11 20:04:12;;;;;;;2.58;1.10;;;4.20;99.90;;;2.35;79.92;101581.31;3511881;39;102491;-40
2021/04/11 20:07:11;;;;;;;2.92;1.10;;;4.20;99.90;;;2.27;80.07;101590.09;3519832;39;103992;-40
2021/04/11 20:09:57;;;;;;;1.77;1.05;;;4.10;99.90;;;2.22;79.80;101598.59;3503236;39;102448;-40
2021/04/11 20:12:54;;;;;;;3.33;1.20;;;4.10;99.90;;;2.15;80.20;101592.94;3528946;39;102100;-40
2021/04/11 20:15:42;;;;;;;2.90;1.17;;;4.00;99.90;;;2.10;80.59;101589.78;3519578;39;102484;-40
2021/04/11 20:18:24;;;;;;;3.20;1.10;;;4.00;99.90;;;2.03;80.40;101582.41;3529547;39;102425;-40
2021/04/11 20:21:17;;;;;;;3.88;1.58;;;3.90;99.90;;;1.95;80.25;101589.31;3511744;39;104955;-40
2021/04/11 20:24:07;;;;;;;3.50;1.30;;;3.80;99.90;;;1.93;80.09;101590.44;3519742;39;103356;-40
2021/04/11 20:27:05;;;;;;;3.80;1.33;;;3.80;99.90;;;1.90;80.37;101601.50;3519869;39;103806;-40
2021/04/11 20:29:51;;;;;;;2.67;1.30;;;3.70;99.90;;;1.85;80.22;101594.66;3511850;39;105763;-40
2021/04/11 20:32:36;;;;;;;2.97;1.30;;;3.70;99.90;;;1.80;80.07;101596.91;3529142;39;102425;-40
2021/04/11 20:35:14;;;;;;;2.40;1.38;;;3.70;99.90;;;1.83;79.62;101604.69;3529054;39;102455;-40
2021/04/11 20:38:20;;;;;;;4.13;1.10;;;3.70;99.90;;;1.79;79.90;101608.66;3512243;39;102252;-40
2021/04/11 20:41:15;;;;;;;3.42;1.35;;;3.60;99.90;;;1.72;80.15;101612.88;3519863;39;104017;-40
2021/04/11 20:43:59;;;;;;;3.83;1.50;;;3.60;99.90;;;1.66;80.67;101619.63;3519376;39;102783;-40
2021/04/11 20:46:56;;;;;;;7.10;2.22;;;3.60;99.90;;;1.61;81.32;101619.19;3511492;39;104005;-40
2021/04/11 20:49:42;;;;;;;5.93;2.50;;;3.50;99.90;;;1.55;81.80;101634.03;3528881;39;102319;-40
2021/04/11 20:52:34;;;;;;;6.57;3.10;;;3.50;99.90;;;1.52;81.94;101636.97;3528900;39;104217;-40
2021/04/11 20:55:22;;;;;;;9.45;4.43;;;3.40;99.90;;;1.48;82.70;101650.84;3528474;39;102339;-41
2021/04/11 20:58:09;;;;;;;12.80;4.88;;;3.40;99.90;;;1.45;82.58;101657.34;3519956;39;102162;-40
2021/04/11 21:01:02;;;;;;;15.25;5.63;;;3.30;99.90;;;1.43;82.83;101656.63;3519590;39;103463;-41
2021/04/11 21:03:44;;;;;;;15.48;5.97;;;3.30;99.90;;;1.39;83.30;101658.72;3528697;39;103210;-40
2021/04/11 21:06:37;;;;;;;10.68;5.65;;;3.30;99.90;;;1.38;83.61;101666.91;3511787;39;103512;-40
2021/04/11 21:09:23;;;;;;;9.70;3.67;;;3.30;99.90;;;1.32;83.51;101667.41;3527856;39;102921;-40
2021/04/11 21:12:07;;;;;;;6.68;3.20;;;3.20;99.90;;;1.29;83.88;101666.69;3511315;39;102403;-42
2021/04/11 21:14:55;;;;;;;4.28;2.15;;;3.20;99.90;;;1.24;83.84;101673.47;3511707;39;102738;-40
2021/04/11 21:17:41;;;;;;;8.05;2.63;;;3.20;99.90;;;1.18;84.07;101674.84;3519981;39;102449;-41
2021/04/11 21:20:29;;;;;;;4.90;2.58;;;3.10;99.90;;;1.10;84.41;101683.53;3528731;39;105161;-40
2021/04/11 21:23:23;;;;;;;4.45;2.03;;;3.10;99.90;;;1.05;84.52;101682.22;3519434;39;103985;-40
2021/04/11 21:26:02;;;;;;;5.38;1.88;;;3.00;99.90;;;0.99;84.79;101681.75;3519239;39;105182;-40
2021/04/11 21:28:48;;;;;;;;;;;2.90;99.90;;;0.99;84.53;101687.13;3504167;39;102373;-40
2021/04/11 21:31:44;;;;;;;2.50;1.40;;;2.90;99.90;;;0.96;84.27;101691.94;3519625;39;104919;-40
2021/04/11 21:34:31;;;;;;;3.58;1.60;;;2.90;99.90;;;0.96;84.39;101698.13;3528510;39;102448;-40
2021/04/11 21:37:13;;;;;;;4.43;1.70;;;2.90;99.90;;;0.92;83.78;101710.13;3512833;39;105249;-40
2021/04/11 21:39:50;;;;;;;3.50;1.90;;;2.80;99.90;;;0.86;84.04;101708.78;3528382;39;104497;-40
2021/04/11 21:42:47;;;;;;;3.60;1.75;;;2.80;99.90;;;0.79;84.33;101723.72;3528448;39;102243;-40
